Time;durP1;ratioP1;P1;durP2;ratioP2;P2;SDS_P1;SDS_P2;PMS_P1;PMS_P2;Temp;Humidity;BMP_temperature;BMP_pressure;BME280_temperature;BME280_humidity;BME280_pressure;Samples;Min_cycle;Max_cycle;Signal;HPM_P1;HPM_P2
2024/01/28 00:01:40;;;;;;;27.67;13.85;;;;;;;0.18;100.00;103134.13;5087144;28;20027;-76
2024/01/28 00:04:06;;;;;;;27.98;13.77;;;;;;;0.15;100.00;103129.56;5082801;28;20032;-75
2024/01/28 00:06:31;;;;;;;26.30;13.35;;;;;;;0.09;100.00;103130.78;5083235;28;20036;-73
2024/01/28 00:08:56;;;;;;;29.15;14.43;;;;;;;0.15;100.00;103115.66;5084297;28;20122;-72
2024/01/28 00:11:22;;;;;;;29.30;14.95;;;;;;;0.22;100.00;103114.47;5083919;28;20028;-73
2024/01/28 00:13:47;;;;;;;30.80;15.07;;;;;;;0.32;100.00;103109.22;5083954;28;20037;-72
2024/01/28 00:16:17;;;;;;;28.00;13.95;;;;;;;0.38;100.00;103106.22;5086123;28;20040;-73
2024/01/28 00:18:42;;;;;;;26.90;14.32;;;;;;;0.38;100.00;103103.63;5083077;28;20039;-75
2024/01/28 00:21:08;;;;;;;30.75;14.68;;;;;;;0.41;100.00;103103.88;5086770;28;20024;-73
2024/01/28 00:23:33;;;;;;;27.80;14.38;;;;;;;0.40;100.00;103104.69;5083223;28;20108;-72
2024/01/28 00:26:01;;;;;;;27.95;14.25;;;;;;;0.43;100.00;103102.31;5085592;28;20398;-73
2024/01/28 00:28:27;;;;;;;28.50;14.52;;;;;;;0.43;100.00;103097.13;5084206;28;20020;-72
2024/01/28 00:30:53;;;;;;;28.02;14.50;;;;;;;0.41;100.00;103094.38;5083000;28;20475;-72
2024/01/28 00:33:19;;;;;;;29.90;15.32;;;;;;;0.40;100.00;103089.97;5085391;28;20140;-73
2024/01/28 00:35:44;;;;;;;29.65;15.45;;;;;;;0.43;100.00;103104.91;5082966;28;20037;-72
2024/01/28 00:38:10;;;;;;;27.45;13.75;;;;;;;0.38;100.00;103095.81;5086006;28;20502;-72
2024/01/28 00:40:35;;;;;;;28.33;14.30;;;;;;;0.21;100.00;103092.75;5082948;28;20059;-72
2024/01/28 00:43:03;;;;;;;28.85;13.95;;;;;;;0.15;100.00;103090.53;5085286;28;20028;-72
2024/01/28 00:45:29;;;;;;;26.92;14.57;;;;;;;0.06;100.00;103089.81;5083581;28;20134;-73
2024/01/28 00:47:54;;;;;;;26.25;14.18;;;;;;;0.00;100.00;103089.28;5084227;28;20032;-72
2024/01/28 00:50:20;;;;;;;31.17;15.40;;;;;;;-0.13;100.00;103083.81;5084706;28;20097;-82
2024/01/28 00:52:46;;;;;;;28.23;14.27;;;;;;;-0.20;100.00;103074.63;5082884;28;20043;-80
2024/01/28 00:55:11;;;;;;;28.13;14.45;;;;;;;-0.12;100.00;103073.56;5085909;28;20028;-78
2024/01/28 00:57:37;;;;;;;27.92;14.57;;;;;;;-0.16;100.00;103067.97;5082313;28;20516;-80
2024/01/28 01:00:04;;;;;;;28.77;14.32;;;;;;;-0.19;100.00;103072.16;5085184;28;20031;-81
2024/01/28 01:02:29;;;;;;;28.95;15.25;;;;;;;-0.09;100.00;103067.72;5083435;28;20030;-80
2024/01/28 01:04:55;;;;;;;28.95;15.20;;;;;;;-0.06;100.00;103063.69;5084090;28;20036;-72
2024/01/28 01:07:20;;;;;;;27.77;13.75;;;;;;;-0.09;100.00;103060.81;5084605;28;20024;-74
2024/01/28 01:09:46;;;;;;;27.60;14.48;;;;;;;-0.09;100.00;103058.19;5082791;28;20055;-72
2024/01/28 01:12:12;;;;;;;27.85;14.50;;;;;;;-0.18;100.00;103057.44;5085593;28;20089;-79
2024/01/28 01:14:37;;;;;;;29.17;14.68;;;;;;;-0.23;100.00;103057.06;5082253;28;20067;-81
2024/01/28 01:17:04;;;;;;;26.90;14.73;;;;;;;-0.21;100.00;103058.09;5085178;28;20048;-80
2024/01/28 01:19:30;;;;;;;28.33;15.05;;;;;;;-0.17;100.00;103054.06;5083495;28;20124;-79
2024/01/28 01:21:57;;;;;;;29.38;15.18;;;;;;;-0.18;100.00;103057.44;5084233;28;20483;-80
2024/01/28 01:24:22;;;;;;;26.70;14.18;;;;;;;-0.25;100.00;103055.13;5083431;28;20055;-78
2024/01/28 01:26:48;;;;;;;27.25;14.30;;;;;;;-0.34;100.00;103054.34;5082485;28;20056;-80
2024/01/28 01:29:13;;;;;;;27.23;14.15;;;;;;;-0.40;100.00;103058.25;5084962;28;20034;-81
2024/01/28 01:31:38;;;;;;;27.75;14.43;;;;;;;-0.45;100.00;103040.44;5081555;28;20120;-80
2024/01/28 01:34:04;;;;;;;28.52;14.85;;;;;;;-0.58;100.00;103041.13;5084616;28;20036;-81
2024/01/28 01:36:30;;;;;;;28.40;14.88;;;;;;;-0.66;100.00;103045.66;5083005;28;20421;-79
2024/01/28 01:38:56;;;;;;;26.00;14.43;;;;;;;-0.70;100.00;103046.16;5083587;28;20078;-73
2024/01/28 01:41:23;;;;;;;27.65;14.88;;;;;;;-0.72;100.00;103046.03;5082397;28;20176;-72
2024/01/28 01:43:48;;;;;;;28.45;15.07;;;;;;;-0.80;100.00;103046.16;5081133;28;20061;-73
2024/01/28 01:46:14;;;;;;;26.77;15.15;;;;;;;-0.78;100.00;103048.09;5084633;28;20456;-73
2024/01/28 01:48:40;;;;;;;28.00;14.95;;;;;;;-0.88;100.00;103046.41;5081322;28;20025;-72
2024/01/28 01:51:06;;;;;;;28.35;14.90;;;;;;;-0.89;100.00;103051.47;5084448;28;20039;-73
2024/01/28 01:53:32;;;;;;;28.58;15.00;;;;;;;-0.93;100.00;103055.50;5082191;28;20043;-72
2024/01/28 01:55:58;;;;;;;29.73;15.75;;;;;;;-0.94;100.00;103061.47;5083295;28;20029;-72
2024/01/28 01:58:24;;;;;;;29.73;15.50;;;;;;;-1.00;100.00;103067.84;5083248;28;20043;-75
2024/01/28 02:00:49;;;;;;;27.88;15.18;;;;;;;-1.02;100.00;103053.78;5082038;28;20082;-73
2024/01/28 02:03:15;;;;;;;28.02;15.40;;;;;;;-1.07;100.00;103059.47;5084178;28;20078;-75
2024/01/28 02:05:40;;;;;;;28.60;15.48;;;;;;;-1.15;100.00;103059.59;5081317;28;20025;-78
2024/01/28 02:08:06;;;;;;;26.80;14.68;;;;;;;-1.15;100.00;103052.72;5084178;28;20035;-72
2024/01/28 02:10:32;;;;;;;27.52;15.38;;;;;;;-1.16;100.00;103060.38;5080738;28;20035;-74
2024/01/28 02:12:57;;;;;;;28.77;15.43;;;;;;;-1.16;100.00;103053.50;5082946;28;20520;-73
2024/01/28 02:15:22;;;;;;;27.77;15.40;;;;;;;-1.13;100.00;103061.56;5082515;28;20028;-74
2024/01/28 02:17:48;;;;;;;28.42;15.60;;;;;;;-1.23;100.00;103053.75;5083845;28;20055;-73
2024/01/28 02:20:13;;;;;;;28.08;15.65;;;;;;;-1.32;100.00;103046.06;5080972;28;20032;-76
2024/01/28 02:22:39;;;;;;;29.80;16.15;;;;;;;-1.43;100.00;103045.13;5083144;28;20356;-74
2024/01/28 02:25:05;;;;;;;27.75;15.90;;;;;;;-1.36;100.00;103035.28;5081543;28;20494;-74
2024/01/28 02:27:30;;;;;;;29.55;16.65;;;;;;;-1.47;100.00;103022.28;5082814;28;20115;-75
2024/01/28 02:29:56;;;;;;;29.33;16.70;;;;;;;-1.51;100.00;103027.97;5082595;28;20390;-74
2024/01/28 02:32:21;;;;;;;29.02;16.60;;;;;;;-1.49;100.00;103021.22;5085393;28;20024;-75
2024/01/28 02:34:47;;;;;;;30.08;18.25;;;;;;;-1.51;100.00;103021.88;5081288;28;20446;-73
2024/01/28 02:37:12;;;;;;;30.15;17.95;;;;;;;-1.50;100.00;103014.22;5084333;28;20034;-72
2024/01/28 02:39:38;;;;;;;30.92;18.50;;;;;;;-1.59;100.00;103008.19;5080923;28;20082;-72
2024/01/28 02:42:04;;;;;;;31.35;18.20;;;;;;;-1.64;100.00;103001.72;5083697;28;20068;-72
2024/01/28 02:44:30;;;;;;;29.02;17.42;;;;;;;-1.65;100.00;102995.59;5081808;28;20063;-73
2024/01/28 02:47:01;;;;;;;30.83;17.92;;;;;;;-1.64;100.00;103000.03;5082711;28;20069;-75
2024/01/28 02:49:26;;;;;;;29.33;17.58;;;;;;;-1.71;100.00;102997.66;5082743;28;20053;-75
2024/01/28 02:51:52;;;;;;;30.15;17.60;;;;;;;-1.70;100.00;103006.34;5082143;28;20100;-80
2024/01/28 02:54:17;;;;;;;29.80;17.58;;;;;;;-1.72;100.00;103003.63;5084164;28;20023;-80
2024/01/28 02:56:43;;;;;;;31.00;18.85;;;;;;;-1.70;100.00;102996.91;5080981;28;20372;-80
2024/01/28 02:59:10;;;;;;;31.20;19.52;;;;;;;-1.59;100.00;102997.81;5080976;28;20028;-80
2024/01/28 03:01:43;;;;;;;32.30;19.55;;;;;;;-1.59;100.00;102995.22;5084631;28;20036;-81
2024/01/28 03:04:09;;;;;;;29.98;18.83;;;;;;;-1.64;100.00;103000.03;5077205;28;20078;-78
2024/01/28 03:06:34;;;;;;;30.27;18.00;;;;;;;-1.76;100.00;103001.53;5083840;28;20383;-76
2024/01/28 03:08:59;;;;;;;31.58;18.63;;;;;;;-1.80;100.00;102994.25;5082432;28;20039;-75
2024/01/28 03:11:25;;;;;;;29.92;18.58;;;;;;;-1.78;100.00;102996.22;5082364;28;20029;-80
2024/01/28 03:13:50;;;;;;;30.52;18.63;;;;;;;-1.74;100.00;102988.72;5082817;28;20038;-81
2024/01/28 03:16:15;;;;;;;30.52;18.33;;;;;;;-1.74;100.00;102984.44;5080598;28;20052;-77
2024/01/28 03:18:41;;;;;;;28.17;18.00;;;;;;;-1.71;100.00;102981.19;5084125;28;20475;-72
2024/01/28 03:21:06;;;;;;;30.98;18.40;;;;;;;-1.74;100.00;102978.34;5079327;28;20391;-74
2024/01/28 03:23:32;;;;;;;29.58;18.27;;;;;;;-1.72;100.00;102974.19;5082933;28;20539;-72
2024/01/28 03:25:57;;;;;;;31.23;17.85;;;;;;;-1.82;100.00;102975.97;5081917;28;20039;-72
2024/01/28 03:28:22;;;;;;;29.48;17.52;;;;;;;-1.77;100.00;102977.28;5081457;28;20029;-73
2024/01/28 03:30:47;;;;;;;29.98;17.92;;;;;;;-1.83;100.00;102974.16;5081835;28;20107;-72
2024/01/28 03:33:13;;;;;;;29.92;17.85;;;;;;;-1.85;100.00;102969.59;5080138;28;20512;-72
2024/01/28 03:35:38;;;;;;;31.58;18.23;;;;;;;-1.77;100.00;102969.50;5082404;28;20029;-79
2024/01/28 03:38:05;;;;;;;30.75;17.80;;;;;;;-1.74;100.00;102978.34;5079665;28;20040;-73
2024/01/28 03:40:31;;;;;;;31.17;18.17;;;;;;;-1.73;100.00;102965.50;5084025;28;20064;-73
2024/01/28 03:42:56;;;;;;;30.98;17.10;;;;;;;-1.66;100.00;102972.13;5084383;28;20063;-80
2024/01/28 03:45:21;;;;;;;32.30;18.05;;;;;;;-1.65;100.00;102971.34;5084896;28;20125;-80
2024/01/28 03:47:47;;;;;;;30.25;16.90;;;;;;;-1.68;100.00;102966.81;5086852;28;20103;-80
2024/01/28 03:50:12;;;;;;;29.65;16.95;;;;;;;-1.71;100.00;102968.22;5084302;28;20028;-75
2024/01/28 03:52:37;;;;;;;30.13;17.23;;;;;;;-1.79;100.00;102970.13;5086728;28;20036;-73
2024/01/28 03:55:03;;;;;;;30.35;16.60;;;;;;;-1.73;100.00;102967.16;5086951;28;20027;-72
2024/01/28 03:57:29;;;;;;;30.30;15.95;;;;;;;-1.68;100.00;102956.44;5084115;28;20028;-72
2024/01/28 03:59:54;;;;;;;30.33;16.48;;;;;;;-1.66;100.00;102952.31;5084727;28;20029;-72
2024/01/28 04:02:19;;;;;;;29.00;16.20;;;;;;;-1.59;100.00;102959.84;5086226;28;20046;-73
2024/01/28 04:04:45;;;;;;;30.02;17.20;;;;;;;-1.55;100.00;102961.00;5083320;28;20028;-73
2024/01/28 04:07:10;;;;;;;29.50;16.88;;;;;;;-1.60;100.00;102968.41;5085633;28;20115;-72
2024/01/28 04:09:38;;;;;;;30.17;17.20;;;;;;;-1.60;100.00;102971.00;5082937;28;20032;-72
2024/01/28 04:12:04;;;;;;;29.90;17.33;;;;;;;-1.64;100.00;102970.59;5086005;28;20110;-72
2024/01/28 04:14:30;;;;;;;32.15;18.38;;;;;;;-1.72;100.00;102963.81;5084858;28;20077;-72
2024/01/28 04:16:56;;;;;;;29.60;18.05;;;;;;;-1.81;100.00;102966.50;5084578;28;20049;-73
2024/01/28 04:19:22;;;;;;;29.23;17.48;;;;;;;-1.84;100.00;102966.22;5085707;28;20032;-73
2024/01/28 04:21:47;;;;;;;30.90;17.30;;;;;;;-1.86;100.00;102960.91;5083449;28;20031;-72
2024/01/28 04:24:13;;;;;;;30.45;17.58;;;;;;;-1.83;100.00;102948.22;5085490;28;20457;-72
2024/01/28 04:26:38;;;;;;;30.27;16.90;;;;;;;-1.78;100.00;102951.22;5083065;28;20035;-73
2024/01/28 04:29:03;;;;;;;31.65;17.60;;;;;;;-1.68;100.00;102952.94;5085457;28;20705;-72
2024/01/28 04:31:29;;;;;;;30.58;17.95;;;;;;;-1.72;100.00;102946.56;5084586;28;20077;-78
2024/01/28 04:33:55;;;;;;;30.38;17.38;;;;;;;-1.75;100.00;102938.50;5084062;28;20044;-72
2024/01/28 04:36:21;;;;;;;31.42;16.88;;;;;;;-1.80;100.00;102926.84;5084390;28;20119;-73
2024/01/28 04:38:46;;;;;;;28.70;16.50;;;;;;;-1.78;100.00;102936.59;5083391;28;20445;-73
2024/01/28 04:41:12;;;;;;;28.15;15.77;;;;;;;-1.85;100.00;102934.22;5084830;28;20119;-72
2024/01/28 04:43:41;;;;;;;31.17;15.10;;;;;;;-1.91;100.00;102930.16;5083126;28;20081;-76
2024/01/28 04:46:06;;;;;;;27.63;16.17;;;;;;;-1.92;100.00;102924.06;5085902;28;20028;-73
2024/01/28 04:48:32;;;;;;;32.40;16.08;;;;;;;-1.85;100.00;102923.84;5083568;28;20097;-72
2024/01/28 04:50:57;;;;;;;30.70;16.55;;;;;;;-1.79;100.00;102921.78;5083859;28;20024;-74
2024/01/28 04:53:22;;;;;;;29.75;16.10;;;;;;;-1.78;100.00;102915.84;5084752;28;20070;-75
2024/01/28 04:55:48;;;;;;;30.02;16.50;;;;;;;-1.75;100.00;102912.56;5082747;28;20037;-74
2024/01/28 04:58:13;;;;;;;28.60;16.50;;;;;;;-1.76;100.00;102911.69;5085951;28;20032;-74
2024/01/28 05:00:39;;;;;;;30.50;16.70;;;;;;;-1.73;100.00;102908.44;5082241;28;20024;-73
2024/01/28 05:03:04;;;;;;;29.52;16.98;;;;;;;-1.70;100.00;102907.78;5085082;28;20046;-74
2024/01/28 05:05:30;;;;;;;29.60;16.33;;;;;;;-1.79;100.00;102903.63;5082411;28;20028;-74
2024/01/28 05:07:55;;;;;;;28.67;16.55;;;;;;;-1.79;100.00;102908.81;5082521;28;20480;-73
2024/01/28 05:10:20;;;;;;;27.10;15.63;;;;;;;-1.75;100.00;102912.56;5083305;28;20378;-77
2024/01/28 05:12:47;;;;;;;28.92;15.45;;;;;;;-1.73;100.00;102917.88;5082216;28;20028;-79
2024/01/28 05:15:16;;;;;;;28.58;15.80;;;;;;;-1.72;100.00;102917.13;5085607;28;20032;-74
2024/01/28 05:17:42;;;;;;;29.25;15.32;;;;;;;-1.71;100.00;102916.34;5077916;28;20462;-78
2024/01/28 05:20:11;;;;;;;26.40;13.38;;;;;;;-1.65;100.00;102914.28;5085107;28;20051;-78
2024/01/28 05:22:37;;;;;;;28.23;14.18;;;;;;;-1.60;100.00;102915.63;5082118;28;20028;-79
2024/01/28 05:25:03;;;;;;;28.33;13.60;;;;;;;-1.55;100.00;102919.50;5084163;28;20040;-79
2024/01/28 05:27:29;;;;;;;27.38;12.55;;;;;;;-1.53;100.00;102905.00;5083574;28;20028;-79
2024/01/28 05:29:55;;;;;;;26.40;12.48;;;;;;;-1.54;100.00;102903.16;5082873;28;20117;-79
2024/01/28 05:32:21;;;;;;;27.13;12.63;;;;;;;-1.49;100.00;102901.88;5084449;28;20028;-80
2024/01/28 05:34:47;;;;;;;26.20;12.45;;;;;;;-1.48;100.00;102895.00;5081943;28;20166;-80
2024/01/28 05:37:15;;;;;;;26.20;12.18;;;;;;;-1.49;100.00;102881.09;5085131;28;20028;-80
2024/01/28 05:39:40;;;;;;;25.83;12.38;;;;;;;-1.51;100.00;102874.00;5082033;28;20052;-73
2024/01/28 05:42:06;;;;;;;26.45;11.90;;;;;;;-1.54;100.00;102864.25;5084502;28;20109;-72
2024/01/28 05:44:32;;;;;;;24.80;11.77;;;;;;;-1.56;100.00;102870.97;5082589;28;20047;-78
2024/01/28 05:46:57;;;;;;;26.02;11.75;;;;;;;-1.59;100.00;102875.91;5082904;28;20020;-79
2024/01/28 05:49:22;;;;;;;25.48;11.30;;;;;;;-1.59;100.00;102862.94;5083947;28;20063;-80
2024/01/28 05:51:48;;;;;;;25.02;11.70;;;;;;;-1.57;100.00;102866.59;5081497;28;20029;-79
2024/01/28 05:54:13;;;;;;;24.58;11.27;;;;;;;-1.53;100.00;102860.88;5084956;28;20120;-79
2024/01/28 05:56:38;;;;;;;27.58;12.00;;;;;;;-1.56;100.00;102868.38;5080368;28;20035;-79
2024/01/28 05:59:04;;;;;;;25.15;11.60;;;;;;;-1.62;100.00;102860.06;5083641;28;20032;-80
2024/01/28 06:01:29;;;;;;;25.27;10.70;;;;;;;-1.62;100.00;102853.19;5082914;28;20032;-74
2024/01/28 06:03:54;;;;;;;24.98;10.57;;;;;;;-1.61;100.00;102848.94;5081554;28;20029;-72
2024/01/28 06:06:20;;;;;;;25.20;11.15;;;;;;;-1.62;100.00;102849.72;5083867;28;20050;-73
2024/01/28 06:08:45;;;;;;;25.30;10.63;;;;;;;-1.65;100.00;102839.97;5081270;28;20040;-73
2024/01/28 06:11:10;;;;;;;25.70;10.32;;;;;;;-1.64;100.00;102834.00;5076823;28;20063;-73
2024/01/28 06:13:36;;;;;;;23.70;10.15;;;;;;;-1.60;100.00;102835.19;5082534;28;20090;-73
2024/01/28 06:16:02;;;;;;;23.48;9.70;;;;;;;-1.53;100.00;102834.00;5082480;28;20540;-77
2024/01/28 06:18:27;;;;;;;24.70;10.10;;;;;;;-1.51;100.00;102835.97;5082393;28;20055;-74
2024/01/28 06:20:53;;;;;;;22.63;9.40;;;;;;;-1.48;100.00;102828.44;5083395;28;20483;-73
2024/01/28 06:23:18;;;;;;;23.30;9.25;;;;;;;-1.42;100.00;102833.25;5063249;28;20147;-72
2024/01/28 06:25:43;;;;;;;24.27;9.45;;;;;;;-1.41;100.00;102824.69;5084697;28;20092;-72
2024/01/28 06:28:09;;;;;;;23.20;9.30;;;;;;;-1.39;100.00;102830.00;5081046;28;20029;-77
2024/01/28 06:30:35;;;;;;;23.33;9.25;;;;;;;-1.42;100.00;102834.16;5083549;28;20040;-77
2024/01/28 06:33:02;;;;;;;22.45;9.27;;;;;;;-1.44;100.00;102830.53;5082212;28;20039;-77
2024/01/28 06:35:28;;;;;;;24.33;9.70;;;;;;;-1.48;100.00;102825.84;5082378;28;20024;-75
2024/01/28 06:37:54;;;;;;;24.05;9.80;;;;;;;-1.54;100.00;102821.81;5083443;28;20027;-74
2024/01/28 06:40:20;;;;;;;24.08;9.32;;;;;;;-1.59;100.00;102821.44;5081222;28;20028;-73
2024/01/28 06:42:45;;;;;;;23.95;9.63;;;;;;;-1.63;100.00;102816.75;5084315;28;20054;-74
2024/01/28 06:45:11;;;;;;;24.13;9.68;;;;;;;-1.62;100.00;102813.38;5080891;28;20078;-73
2024/01/28 06:47:36;;;;;;;23.52;9.20;;;;;;;-1.65;100.00;102813.13;5082155;28;20475;-75
2024/01/28 06:50:02;;;;;;;23.02;9.57;;;;;;;-1.67;100.00;102817.28;5082123;28;20390;-75
2024/01/28 06:52:28;;;;;;;23.27;9.32;;;;;;;-1.68;100.00;102820.66;5082112;28;20064;-78
2024/01/28 06:54:53;;;;;;;24.88;9.60;;;;;;;-1.69;100.00;102816.22;5081863;28;20055;-76
2024/01/28 06:57:19;;;;;;;25.52;10.20;;;;;;;-1.74;100.00;102813.25;5081118;28;20386;-76
2024/01/28 06:59:45;;;;;;;24.20;9.63;;;;;;;-1.74;100.00;102812.34;5082784;28;20496;-77
2024/01/28 07:02:11;;;;;;;24.00;9.27;;;;;;;-1.77;100.00;102807.81;5080522;28;20038;-73
2024/01/28 07:04:37;;;;;;;23.70;9.80;;;;;;;-1.82;100.00;102811.69;5083500;28;20035;-75
2024/01/28 07:07:03;;;;;;;23.98;9.90;;;;;;;-1.87;100.00;102811.28;5081667;28;20028;-73
2024/01/28 07:09:29;;;;;;;24.20;10.07;;;;;;;-1.89;100.00;102815.44;5082162;28;20039;-73
2024/01/28 07:11:54;;;;;;;23.65;10.40;;;;;;;-1.89;100.00;102814.50;5082785;28;20032;-78
2024/01/28 07:14:20;;;;;;;24.08;10.10;;;;;;;-1.91;100.00;102813.50;5081069;28;20025;-79
2024/01/28 07:16:45;;;;;;;23.33;9.60;;;;;;;-1.93;100.00;102821.13;5087516;28;20132;-79
2024/01/28 07:19:11;;;;;;;23.05;10.07;;;;;;;-1.95;100.00;102817.50;5084689;28;20088;-79
2024/01/28 07:21:36;;;;;;;23.90;10.15;;;;;;;-1.97;100.00;102826.81;5086707;28;20040;-78
2024/01/28 07:24:03;;;;;;;23.00;10.27;;;;;;;-2.01;100.00;102811.78;5085440;28;20032;-78
2024/01/28 07:26:29;;;;;;;26.38;10.45;;;;;;;-2.01;100.00;102809.19;5085992;28;20025;-78
2024/01/28 07:28:54;;;;;;;23.23;10.00;;;;;;;-2.06;100.00;102805.31;5086225;28;20047;-79
2024/01/28 07:31:19;;;;;;;24.88;10.85;;;;;;;-2.08;100.00;102802.56;5084323;28;20028;-74
2024/01/28 07:33:45;;;;;;;23.40;10.35;;;;;;;-2.12;100.00;102800.50;5087530;28;20032;-79
2024/01/28 07:36:11;;;;;;;24.95;10.80;;;;;;;-2.10;100.00;102806.69;5083913;28;20025;-76
2024/01/28 07:38:36;;;;;;;25.15;11.10;;;;;;;-2.07;100.00;102795.69;5086651;28;20501;-79
2024/01/28 07:41:02;;;;;;;23.83;10.70;;;;;;;-2.12;100.00;102798.78;5085097;28;20028;-79
2024/01/28 07:43:28;;;;;;;24.83;10.95;;;;;;;-2.08;100.00;102806.84;5084292;28;20041;-78
2024/01/28 07:45:53;;;;;;;24.13;10.68;;;;;;;-2.05;100.00;102804.50;5086339;28;20043;-79
2024/01/28 07:48:19;;;;;;;25.20;10.68;;;;;;;-1.99;100.00;102798.19;5083880;28;20423;-78
2024/01/28 07:50:44;;;;;;;26.02;10.93;;;;;;;-1.94;100.00;102793.38;5087032;28;20027;-78
2024/01/28 07:53:09;;;;;;;25.05;10.50;;;;;;;-1.90;100.00;102795.47;5084070;28;20068;-77
2024/01/28 07:55:35;;;;;;;25.83;10.65;;;;;;;-1.85;100.00;102791.59;5085941;28;20378;-73
2024/01/28 07:58:00;;;;;;;24.90;9.90;;;;;;;-1.78;100.00;102791.34;5084958;28;20077;-79
2024/01/28 08:00:27;;;;;;;25.08;10.23;;;;;;;-1.75;100.00;102785.50;5085283;28;20071;-73
2024/01/28 08:02:53;;;;;;;24.15;10.43;;;;;;;-1.69;100.00;102792.88;5086032;28;20030;-73
2024/01/28 08:05:19;;;;;;;24.00;10.27;;;;;;;-1.60;100.00;102809.25;5083524;28;20028;-73
2024/01/28 08:07:44;;;;;;;27.05;10.13;;;;;;;-1.55;100.00;102797.56;5086934;28;20379;-73
2024/01/28 08:10:09;;;;;;;22.17;9.27;;;;;;;-1.50;100.00;102797.94;5083484;28;20032;-74
2024/01/28 08:12:35;;;;;;;24.40;10.35;;;;;;;-1.47;100.00;102796.53;5085613;28;20041;-72
2024/01/28 08:15:00;;;;;;;23.55;9.50;;;;;;;-1.40;100.00;102792.75;5085130;28;20098;-73
2024/01/28 08:17:26;;;;;;;24.50;9.80;;;;;;;-1.30;100.00;102791.84;5083060;28;20075;-73
2024/01/28 08:19:51;;;;;;;24.98;10.18;;;;;;;-1.13;100.00;102790.66;5085068;28;20367;-74
2024/01/28 08:22:17;;;;;;;24.02;10.13;;;;;;;-0.92;100.00;102782.06;5083239;28;20040;-74
2024/01/28 08:24:42;;;;;;;23.20;9.48;;;;;;;-0.64;100.00;102778.19;5078933;28;20021;-74
2024/01/28 08:27:08;;;;;;;22.63;9.18;;;;;;;-0.39;100.00;102779.38;5085150;28;20046;-73
2024/01/28 08:29:33;;;;;;;22.88;9.35;;;;;;;-0.09;100.00;102777.38;5084016;28;20146;-74
2024/01/28 08:31:59;;;;;;;22.15;8.55;;;;;;;0.20;100.00;102773.53;5084346;28;20031;-73
2024/01/28 08:34:24;;;;;;;22.73;8.30;;;;;;;0.43;100.00;102775.31;5085409;28;20390;-74
2024/01/28 08:36:50;;;;;;;21.38;8.13;;;;;;;0.75;100.00;102770.72;5083013;28;20035;-74
2024/01/28 08:39:15;;;;;;;22.95;7.97;;;;;;;0.98;100.00;102762.03;5086156;28;20031;-74
2024/01/28 08:41:41;;;;;;;21.10;8.20;;;;;;;1.24;100.00;102761.34;5082940;28;20060;-76
2024/01/28 08:44:07;;;;;;;20.70;7.40;;;;;;;1.41;100.00;102759.03;5083873;28;20525;-75
2024/01/28 08:46:32;;;;;;;20.75;7.50;;;;;;;1.67;100.00;102755.69;5083991;28;20028;-75
2024/01/28 08:48:58;;;;;;;20.75;7.60;;;;;;;1.90;100.00;102759.94;5083993;28;20037;-75
2024/01/28 08:51:24;;;;;;;21.20;7.47;;;;;;;2.07;100.00;102762.00;5084941;28;20032;-75
2024/01/28 08:53:49;;;;;;;21.63;7.57;;;;;;;2.22;100.00;102751.72;5082592;28;20028;-77
2024/01/28 08:56:15;;;;;;;20.92;7.25;;;;;;;2.31;100.00;102750.56;5084594;28;20111;-77
2024/01/28 08:58:40;;;;;;;20.83;7.10;;;;;;;2.42;100.00;102745.25;5082592;28;20035;-77
2024/01/28 09:01:06;;;;;;;19.42;6.90;;;;;;;2.63;100.00;102749.22;5084848;28;20028;-76
2024/01/28 09:03:31;;;;;;;19.70;7.03;;;;;;;2.94;100.00;102746.94;5082404;28;20032;-75
2024/01/28 09:05:57;;;;;;;20.38;6.60;;;;;;;3.19;100.00;102748.53;5083563;28;20442;-75
2024/01/28 09:08:22;;;;;;;19.50;6.57;;;;;;;3.45;100.00;102744.97;5085129;28;20391;-74
2024/01/28 09:10:47;;;;;;;20.92;7.00;;;;;;;3.64;100.00;102749.66;5082068;28;20438;-74
2024/01/28 09:13:13;;;;;;;20.50;6.63;;;;;;;3.92;100.00;102746.19;5077689;28;20127;-74
2024/01/28 09:15:38;;;;;;;20.35;6.53;;;;;;;4.07;100.00;102749.72;5084934;28;20016;-75
2024/01/28 09:18:04;;;;;;;21.02;6.50;;;;;;;4.24;100.00;102744.59;5082820;28;20052;-74
2024/01/28 09:20:29;;;;;;;19.40;6.28;;;;;;;4.34;100.00;102737.41;5083479;28;20037;-74
2024/01/28 09:22:55;;;;;;;20.00;6.30;;;;;;;4.50;100.00;102735.69;5083497;28;20052;-72
2024/01/28 09:25:20;;;;;;;18.65;6.28;;;;;;;4.65;100.00;102743.56;5082331;28;20052;-71
2024/01/28 09:27:48;;;;;;;19.35;6.28;;;;;;;4.78;100.00;102729.47;5085099;28;20394;-71
2024/01/28 09:30:14;;;;;;;19.70;6.35;;;;;;;4.99;100.00;102729.78;5077833;28;20475;-71
2024/01/28 09:32:40;;;;;;;20.35;6.38;;;;;;;5.26;100.00;102726.91;5084505;28;20028;-71
2024/01/28 09:35:06;;;;;;;20.10;6.30;;;;;;;5.45;100.00;102732.38;5082778;28;20024;-71
2024/01/28 09:37:31;;;;;;;18.92;6.30;;;;;;;5.70;100.00;102724.13;5083721;28;20387;-70
2024/01/28 09:39:56;;;;;;;19.25;5.95;;;;;;;5.99;100.00;102718.69;5083998;28;20115;-73
2024/01/28 09:42:28;;;;;;;20.63;6.28;;;;;;;6.26;100.00;102721.84;5082439;28;20082;-71
2024/01/28 09:44:53;;;;;;;21.02;5.97;;;;;;;6.65;100.00;102721.19;5084343;28;20016;-72
2024/01/28 09:47:19;;;;;;;19.23;6.10;;;;;;;6.97;100.00;102715.81;5081449;28;20040;-72
2024/01/28 09:49:46;;;;;;;18.63;5.88;;;;;;;7.17;100.00;102721.13;5083607;28;20034;-72
2024/01/28 09:52:13;;;;;;;19.25;5.90;;;;;;;7.53;100.00;102733.31;5081744;28;20119;-76
2024/01/28 09:54:44;;;;;;;19.10;5.85;;;;;;;7.89;100.00;102723.56;5084074;28;20032;-72
2024/01/28 09:57:11;;;;;;;18.02;5.90;;;;;;;7.96;100.00;102730.94;5081871;28;20364;-73
2024/01/28 09:59:36;;;;;;;18.67;5.88;;;;;;;8.25;100.00;102723.41;5083886;28;20078;-72
2024/01/28 10:02:04;;;;;;;19.13;5.82;;;;;;;8.43;100.00;102717.16;5082737;28;20028;-72
2024/01/28 10:04:30;;;;;;;18.25;5.93;;;;;;;8.81;100.00;102705.63;5082718;28;20066;-72
2024/01/28 10:06:59;;;;;;;17.85;5.78;;;;;;;9.22;100.00;102705.50;5083821;28;20530;-72
2024/01/28 10:09:26;;;;;;;17.92;5.40;;;;;;;9.76;100.00;102708.44;5081967;28;20025;-72
2024/01/28 10:11:52;;;;;;;19.42;5.50;;;;;;;9.93;100.00;102702.88;5083986;28;20531;-71
2024/01/28 10:14:18;;;;;;;17.95;5.45;;;;;;;10.09;100.00;102706.97;5081372;28;20044;-73
2024/01/28 10:16:47;;;;;;;17.65;5.43;;;;;;;10.57;100.00;102699.03;5084643;28;20046;-73
2024/01/28 10:19:13;;;;;;;17.92;5.10;;;;;;;10.81;100.00;102704.22;5080879;28;20044;-72
2024/01/28 10:21:38;;;;;;;18.95;5.65;;;;;;;10.93;100.00;102702.81;5082599;28;20101;-72
2024/01/28 10:24:04;;;;;;;19.70;5.43;;;;;;;11.16;100.00;102695.63;5082122;28;20478;-72
2024/01/28 10:26:30;;;;;;;16.67;5.10;;;;;;;11.36;100.00;102701.53;5082370;28;20052;-72
2024/01/28 10:28:55;;;;;;;17.70;5.40;;;;;;;11.38;100.00;102696.28;5083776;28;20035;-74
2024/01/28 10:31:23;;;;;;;17.40;5.40;;;;;;;11.36;100.00;102696.25;5081317;28;20060;-79
2024/01/28 10:33:49;;;;;;;17.92;5.13;;;;;;;11.47;100.00;102693.91;5084198;28;20020;-73
2024/01/28 10:36:16;;;;;;;17.88;5.32;;;;;;;11.97;100.00;102688.28;5079605;28;20054;-76
2024/01/28 10:38:45;;;;;;;17.73;5.13;;;;;;;12.45;100.00;102689.56;5083822;28;20408;-71
2024/01/28 10:41:15;;;;;;;18.92;5.60;;;;;;;12.72;100.00;102690.28;5079944;28;20024;-71
2024/01/28 10:44:04;;;;;;;18.70;5.55;;;;;;;12.94;100.00;102689.91;5083868;28;20554;-72
2024/01/28 10:46:37;;;;;;;18.98;5.72;;;;;;;12.81;100.00;102689.59;5078512;28;20044;-71
2024/01/28 10:49:05;;;;;;;19.15;5.32;;;;;;;12.90;100.00;102683.63;5083864;28;20498;-71
2024/01/28 10:51:35;;;;;;;19.23;5.50;;;;;;;13.20;100.00;102688.75;5086867;28;20444;-73
2024/01/28 10:54:05;;;;;;;19.63;5.30;;;;;;;13.52;100.00;102688.59;5086185;28;20033;-72
2024/01/28 10:56:31;;;;;;;17.73;5.32;;;;;;;13.82;96.09;102678.56;5087053;28;20198;-71
2024/01/28 10:58:57;;;;;;;18.50;5.07;;;;;;;14.11;95.62;102672.06;5085646;28;20379;-72
2024/01/28 11:01:24;;;;;;;17.88;5.45;;;;;;;14.52;96.30;102663.03;5087420;28;20032;-74